Time;durP1;ratioP1;P1;durP2;ratioP2;P2;SDS_P1;SDS_P2;PMS_P1;PMS_P2;Temp;Humidity;BMP_temperature;BMP_pressure;BME280_temperature;BME280_humidity;BME280_pressure;Samples;Min_cycle;Max_cycle;Signal;HPM_P1;HPM_P2
2022/04/22 00:01:26;;;;;;;1.33;1.05;;;8.30;88.20;;;;;;5110983;27;20668;-84
2022/04/22 00:03:53;;;;;;;0.30;0.20;;;8.40;70.10;;;;;;5122068;27;20233;-84
2022/04/22 00:06:20;;;;;;;0.30;0.20;;;8.50;70.00;;;;;;5108159;27;20205;-84
2022/04/22 00:08:47;;;;;;;0.30;0.20;;;8.50;70.00;;;;;;5110162;27;20197;-85
2022/04/22 00:11:30;;;;;;;0.30;0.20;;;8.40;70.90;;;;;;5115789;27;20193;-85
2022/04/22 00:14:02;;;;;;;0.30;0.20;;;8.40;70.60;;;;;;5123459;27;20207;-84
2022/04/22 00:16:33;;;;;;;0.30;0.20;;;8.30;71.40;;;;;;5107779;27;20737;-85
2022/04/22 00:19:01;;;;;;;0.55;0.55;;;8.30;71.30;;;;;;5092705;28;20604;-83
2022/04/22 00:21:28;;;;;;;0.35;0.30;;;;;;;;;;5107859;28;20233;-86
2022/04/22 00:23:57;;;;;;;0.40;0.30;;;8.10;90.00;;;;;;5115280;27;20671;-86
2022/04/22 00:26:26;;;;;;;0.50;0.50;;;;;;;;;;5118471;27;20243;-84
2022/04/22 00:28:54;;;;;;;0.30;0.20;;;8.50;89.70;;;;;;5128464;27;20661;-84
2022/04/22 00:31:24;;;;;;;0.40;0.30;;;8.70;78.80;;;;;;5108757;27;20275;-84
2022/04/22 00:33:52;;;;;;;0.40;0.28;;;8.50;70.90;;;;;;5114316;27;20200;-84
2022/04/22 00:36:19;;;;;;;0.47;0.47;;;8.50;71.10;;;;;;5127956;27;20196;-85
2022/04/22 00:38:46;;;;;;;0.40;0.30;;;8.40;90.40;;;;;;5121807;27;20203;-85
2022/04/22 00:41:13;;;;;;;0.40;0.40;;;8.50;71.20;;;;;;5112616;27;20260;-84
2022/04/22 00:43:45;;;;;;;0.38;0.28;;;8.40;89.50;;;;;;5122975;28;20203;-84
2022/04/22 00:46:12;;;;;;;0.30;0.20;;;8.40;71.50;;;;;;5107591;28;20199;-84
2022/04/22 00:48:41;;;;;;;0.40;0.30;;;8.50;72.30;;;;;;5109009;28;20657;-85
2022/04/22 00:51:10;;;;;;;0.30;0.20;;;8.40;83.40;;;;;;5108707;28;20215;-83
2022/04/22 00:53:37;;;;;;;1.08;0.68;;;;;;;;;;5112502;27;20222;-84
2022/04/22 00:56:06;;;;;;;0.57;0.57;;;8.30;72.10;;;;;;5121772;28;20614;-85
2022/04/22 00:58:36;;;;;;;0.40;0.28;;;8.00;90.10;;;;;;5113040;27;20212;-87
2022/04/22 01:01:03;;;;;;;0.30;0.20;;;8.10;90.50;;;;;;5109946;27;20628;-84
2022/04/22 01:03:30;;;;;;;0.30;0.20;;;8.20;79.80;;;;;;5087570;28;20250;-84
2022/04/22 01:11:32;;;;;;;0.40;0.30;;;8.00;74.10;;;;;;5116217;27;20563;-84
2022/04/22 01:14:01;;;;;;;0.30;0.20;;;8.40;91.40;;;;;;5118397;27;20557;-84
2022/04/22 01:16:29;;;;;;;0.50;0.45;;;7.70;85.90;;;;;;5112445;27;20199;-83
2022/04/22 01:18:56;;;;;;;0.60;0.55;;;7.80;75.60;;;;;;5121032;27;20224;-84
2022/04/22 01:21:25;;;;;;;0.30;0.20;;;7.70;76.40;;;;;;5112802;27;20227;-84
2022/04/22 01:23:53;;;;;;;0.40;0.38;;;7.60;77.20;;;;;;5118303;27;20206;-85
2022/04/22 01:26:21;;;;;;;0.57;0.50;;;7.70;77.30;;;;;;5124365;27;20244;-84
2022/04/22 01:28:51;;;;;;;5.20;0.63;;;7.80;81.80;;;;;;5111065;28;20230;-84
2022/04/22 01:31:18;;;;;;;0.30;0.20;;;7.60;77.30;;;;;;5117987;27;20190;-84
2022/04/22 01:33:45;;;;;;;0.68;0.50;;;7.60;77.90;;;;;;5128777;27;20191;-85
2022/04/22 01:36:13;;;;;;;0.30;0.20;;;7.70;77.90;;;;;;5131205;27;20676;-84
2022/04/22 01:38:43;;;;;;;0.60;0.43;;;7.70;77.70;;;;;;5120746;27;20206;-86
2022/04/22 01:41:10;;;;;;;0.65;0.50;;;7.80;92.90;;;;;;5111410;27;20706;-85
2022/04/22 01:43:37;;;;;;;0.70;0.52;;;7.70;77.80;;;;;;5121111;27;20223;-83
2022/04/22 01:46:04;;;;;;;0.30;0.20;;;7.70;77.80;;;;;;5118366;27;20192;-85
2022/04/22 01:48:31;;;;;;;0.52;0.52;;;7.60;78.80;;;;;;5131598;27;20646;-86
2022/04/22 01:50:58;;;;;;;0.45;0.45;;;7.60;79.50;;;;;;5115006;27;20303;-83
2022/04/22 01:53:25;;;;;;;0.30;0.20;;;;;;;;;;5120385;27;20201;-85
2022/04/22 01:55:53;;;;;;;0.30;0.20;;;7.40;94.00;;;;;;5111148;27;20198;-84
2022/04/22 01:58:20;;;;;;;0.75;0.75;;;7.30;81.50;;;;;;5131684;27;20266;-84
2022/04/22 02:00:47;;;;;;;0.30;0.20;;;7.40;82.10;;;;;;5117282;27;20773;-83
2022/04/22 02:03:14;;;;;;;0.30;0.30;;;7.30;82.50;;;;;;5111433;27;20822;-86
2022/04/22 02:05:41;;;;;;;0.30;0.20;;;7.30;94.60;;;;;;5121148;27;20379;-83
2022/04/22 02:08:09;;;;;;;0.40;0.30;;;7.30;94.90;;;;;;5130914;27;20205;-85
2022/04/22 02:10:36;;;;;;;0.30;0.20;;;7.20;83.30;;;;;;5127829;27;20194;-83
2022/04/22 02:13:04;;;;;;;0.75;0.73;;;7.10;94.20;;;;;;5131148;27;20691;-83
2022/04/22 02:15:31;;;;;;;0.60;0.57;;;7.10;82.60;;;;;;5115308;27;20698;-83
2022/04/22 02:17:58;;;;;;;0.70;0.30;;;7.20;82.10;;;;;;5119220;27;20271;-83
2022/04/22 02:20:25;;;;;;;0.50;0.40;;;7.10;82.10;;;;;;5118365;27;20248;-83
2022/04/22 02:22:52;;;;;;;0.40;0.32;;;6.80;94.90;;;;;;5118478;27;20262;-84
2022/04/22 02:25:21;;;;;;;1.40;1.17;;;7.00;83.70;;;;;;5129673;27;20264;-85
2022/04/22 02:30:33;;;;;;;0.50;0.40;;;6.80;91.90;;;;;;5117722;27;20308;-84
2022/04/22 02:33:00;;;;;;;0.73;0.30;;;6.90;93.50;;;;;;5110242;27;20249;-83
2022/04/22 02:35:27;;;;;;;0.40;0.35;;;6.70;93.90;;;;;;5109585;28;20225;-84
2022/04/22 02:37:54;;;;;;;0.40;0.30;;;6.90;83.60;;;;;;5110438;28;20762;-83
2022/04/22 02:45:48;;;;;;;0.68;0.68;;;6.90;93.50;;;;;;5116355;27;20683;-83
2022/04/22 02:48:15;;;;;;;0.40;0.30;;;6.80;86.40;;;;;;5110408;28;20295;-84
2022/04/22 02:50:42;;;;;;;0.30;0.25;;;6.80;85.80;;;;;;5119171;27;20209;-84
2022/04/22 02:53:09;;;;;;;0.70;0.50;;;6.70;86.10;;;;;;5129079;27;20583;-83
2022/04/22 02:55:38;;;;;;;0.30;0.17;;;6.70;86.70;;;;;;5129768;27;20557;-84
2022/04/22 02:58:06;;;;;;;0.30;0.22;;;6.90;97.20;;;;;;5124309;27;20199;-83
2022/04/22 03:00:33;;;;;;;0.30;0.20;;;6.80;97.50;;;;;;5109487;27;20224;-83
2022/04/22 03:03:03;;;;;;;0.30;0.20;;;6.60;86.90;;;;;;5120321;27;20197;-84
2022/04/22 03:05:29;;;;;;;0.30;0.20;;;6.60;88.00;;;;;;5109437;28;20255;-83
2022/04/22 03:07:56;;;;;;;1.33;1.30;;;6.60;88.60;;;;;;5109994;27;20195;-83
2022/04/22 03:10:23;;;;;;;0.30;0.20;;;6.60;88.90;;;;;;5126303;27;20246;-84
2022/04/22 03:12:50;;;;;;;0.30;0.20;;;6.60;94.80;;;;;;5129627;27;20205;-84
2022/04/22 03:15:17;;;;;;;0.30;0.20;;;7.10;99.10;;;;;;5114316;27;20282;-86
2022/04/22 03:17:44;;;;;;;0.32;0.30;;;6.50;89.10;;;;;;5124221;27;20247;-84
2022/04/22 03:20:13;;;;;;;0.32;0.30;;;6.60;90.00;;;;;;5118410;27;20399;-86
2022/04/22 03:22:39;;;;;;;0.30;0.20;;;6.20;99.50;;;;;;5109686;28;20202;-84
2022/04/22 03:25:07;;;;;;;0.60;0.60;;;6.20;94.60;;;;;;5120401;27;20221;-84
2022/04/22 03:27:34;;;;;;;0.35;0.30;;;6.30;96.00;;;;;;5108951;28;20930;-85
2022/04/22 03:30:02;;;;;;;0.50;0.47;;;6.30;90.30;;;;;;5113624;27;20280;-84
2022/04/22 03:32:29;;;;;;;0.95;0.40;;;6.30;90.50;;;;;;5129940;27;20199;-85
2022/04/22 03:34:56;;;;;;;0.43;0.43;;;6.20;90.80;;;;;;5113764;27;20260;-86
2022/04/22 03:37:24;;;;;;;1.15;0.95;;;6.30;99.90;;;;;;5115079;27;20253;-83
2022/04/22 03:39:51;;;;;;;0.95;0.70;;;6.00;91.00;;;;;;5116079;27;20198;-85
2022/04/22 03:42:18;;;;;;;0.30;0.20;;;6.20;90.80;;;;;;5112970;27;20281;-83
2022/04/22 03:44:45;;;;;;;0.45;0.43;;;6.30;91.10;;;;;;5107553;28;20683;-84
2022/04/22 03:47:12;;;;;;;0.68;0.30;;;6.30;91.10;;;;;;5108225;28;20229;-84
2022/04/22 03:49:38;;;;;;;0.30;0.20;;;6.30;99.90;;;;;;5108550;27;20232;-85
2022/04/22 03:52:06;;;;;;;0.30;0.25;;;6.20;99.90;;;;;;5110215;27;20225;-85
2022/04/22 03:54:34;;;;;;;0.82;0.82;;;6.10;99.90;;;;;;5119639;27;20275;-85
2022/04/22 03:59:46;;;;;;;2.35;0.93;;;6.20;99.90;;;;;;5113563;27;20220;-84
2022/04/22 04:02:13;;;;;;;0.30;0.20;;;6.20;91.80;;;;;;5116735;27;20221;-84
2022/04/22 04:04:40;;;;;;;0.30;0.20;;;6.70;99.90;;;;;;5112427;27;20592;-83
2022/04/22 04:07:07;;;;;;;0.30;0.20;;;6.80;99.90;;;;;;5108224;28;20670;-84
2022/04/22 04:17:49;;;;;;;0.30;0.30;;;6.10;99.90;;;;;;5108676;28;20238;-83
2022/04/22 04:23:15;;;;;;;0.30;0.30;;;6.00;92.70;;;;;;5114648;27;20200;-84
2022/04/22 04:25:44;;;;;;;0.30;0.17;;;6.30;96.30;;;;;;5086795;28;20698;-84
2022/04/22 04:28:13;;;;;;;0.30;0.22;;;6.70;99.90;;;;;;5105887;27;20208;-85
2022/04/22 04:30:40;;;;;;;0.30;0.20;;;5.90;93.40;;;;;;5107656;28;20255;-85
2022/04/22 04:33:08;;;;;;;3.17;1.10;;;6.00;93.20;;;;;;5114643;27;20229;-85
2022/04/22 04:35:37;;;;;;;0.40;0.32;;;5.70;98.50;;;;;;5108196;28;20194;-84
2022/04/22 04:38:04;;;;;;;0.95;0.95;;;5.90;93.50;;;;;;5114651;28;20194;-83
2022/04/22 04:40:32;;;;;;;0.95;0.95;;;5.80;99.90;;;;;;5119114;27;20251;-83
2022/04/22 04:43:00;;;;;;;0.50;0.30;;;5.90;93.90;;;;;;5112081;28;20185;-83
2022/04/22 04:45:28;;;;;;;1.02;0.65;;;5.80;99.30;;;;;;5124265;27;20736;-85
2022/04/22 04:47:55;;;;;;;0.70;0.40;;;5.90;94.10;;;;;;5106805;28;20205;-83
2022/04/22 04:50:22;;;;;;;0.40;0.40;;;6.00;94.20;;;;;;5110067;28;20593;-85
2022/04/22 04:52:49;;;;;;;0.30;0.20;;;6.10;99.90;;;;;;5110541;28;20744;-85
2022/04/22 04:55:16;;;;;;;1.30;1.27;;;6.70;99.90;;;;;;5111407;28;20634;-83
2022/04/22 04:57:43;;;;;;;0.57;0.50;;;6.00;94.30;;;;;;5111157;28;20206;-83
2022/04/22 05:00:13;;;;;;;0.90;0.73;;;6.00;94.50;;;;;;5111274;28;20198;-85
2022/04/22 05:02:40;;;;;;;0.95;0.52;;;6.00;99.90;;;;;;5111240;28;20225;-83
2022/04/22 05:05:09;;;;;;;0.60;0.40;;;6.10;94.60;;;;;;5111540;28;20205;-85
2022/04/22 05:07:48;;;;;;;0.30;0.20;;;5.90;99.90;;;;;;5112035;28;20227;-84
2022/04/22 05:10:15;;;;;;;1.02;0.50;;;6.10;94.90;;;;;;5111825;28;20618;-84
2022/04/22 05:12:43;;;;;;;1.95;1.83;;;6.10;95.10;;;;;;5112160;27;20635;-84
2022/04/22 05:15:12;;;;;;;1.80;1.70;;;6.10;95.20;;;;;;5111801;28;20737;-83
2022/04/22 05:17:42;;;;;;;1.05;0.98;;;6.20;99.90;;;;;;5112208;27;20668;-84
2022/04/22 05:20:11;;;;;;;0.30;0.20;;;6.20;95.30;;;;;;5111752;28;20285;-82
2022/04/22 05:22:39;;;;;;;0.50;0.43;;;6.20;95.60;;;;;;5111839;28;20657;-83
2022/04/22 05:25:07;;;;;;;0.55;0.55;;;6.30;95.80;;;;;;5111750;28;20202;-82
2022/04/22 05:27:35;;;;;;;0.30;0.20;;;6.40;95.70;;;;;;5111891;28;20194;-82
2022/04/22 05:32:57;;;;;;;0.60;0.60;;;6.40;95.80;;;;;;5111598;28;20323;-83
2022/04/22 05:35:26;;;;;;;1.10;1.00;;;6.40;95.90;;;;;;5110858;28;20660;-84
2022/04/22 05:37:54;;;;;;;0.30;0.20;;;6.20;96.00;;;;;;5111666;28;20735;-83
2022/04/22 05:40:23;;;;;;;0.57;0.57;;;6.50;96.50;;;;;;5110954;28;20190;-82
2022/04/22 05:42:53;;;;;;;0.45;0.45;;;6.30;99.90;;;;;;5110992;28;20275;-83
2022/04/22 05:45:20;;;;;;;0.60;0.45;;;6.70;95.80;;;;;;5109734;28;20209;-84
2022/04/22 05:47:51;;;;;;;2.22;2.00;;;7.20;96.00;;;;;;5111652;28;20202;-84
2022/04/22 05:50:18;;;;;;;0.45;0.45;;;6.90;95.60;;;;;;5111116;28;20599;-84
2022/04/22 05:52:46;;;;;;;0.30;0.25;;;6.90;99.90;;;;;;5111195;28;20214;-83
2022/04/22 05:55:16;;;;;;;0.75;0.75;;;7.00;97.70;;;;;;5110328;28;20226;-84
2022/04/22 05:57:43;;;;;;;1.25;1.13;;;7.60;99.90;;;;;;5111424;28;20244;-83
2022/04/22 06:00:12;;;;;;;0.95;0.95;;;7.20;94.40;;;;;;5111210;28;20594;-83
2022/04/22 06:02:39;;;;;;;0.30;0.30;;;7.30;94.30;;;;;;5111370;27;20661;-83
2022/04/22 06:05:08;;;;;;;0.60;0.60;;;7.40;99.90;;;;;;5110849;27;20472;-83
2022/04/22 06:07:35;;;;;;;0.77;0.77;;;7.30;94.40;;;;;;5110874;28;20197;-85
2022/04/22 06:12:48;;;;;;;0.88;0.85;;;7.50;99.90;;;;;;5111409;28;20232;-83
2022/04/22 06:15:15;;;;;;;0.30;0.17;;;7.70;93.80;;;;;;5110835;28;20210;-83
2022/04/22 06:17:42;;;;;;;0.60;0.60;;;7.60;99.90;;;;;;5110775;28;20276;-83
2022/04/22 06:20:11;;;;;;;0.43;0.43;;;8.20;99.90;;;;;;5110289;28;20200;-84
2022/04/22 06:22:38;;;;;;;0.60;0.60;;;7.60;99.90;;;;;;5110888;28;20280;-83
2022/04/22 06:25:06;;;;;;;0.52;0.40;;;7.90;92.80;;;;;;5111173;28;20211;-84
2022/04/22 06:27:35;;;;;;;0.77;0.73;;;7.70;92.90;;;;;;5110765;28;20208;-85
2022/04/22 06:30:06;;;;;;;0.60;0.45;;;8.00;99.90;;;;;;5110753;28;20659;-83
2022/04/22 06:32:34;;;;;;;0.63;0.63;;;8.10;92.30;;;;;;5110785;28;20224;-83
2022/04/22 06:35:01;;;;;;;0.88;0.77;;;8.40;99.90;;;;;;5110366;28;20285;-84
2022/04/22 06:37:34;;;;;;;0.30;0.20;;;8.50;96.50;;;;;;5110885;28;20291;-83
2022/04/22 06:45:49;;;;;;;1.35;0.88;;;8.50;99.90;;;;;;5108846;28;20205;-85
2022/04/22 06:48:19;;;;;;;0.30;0.22;;;8.70;91.00;;;;;;5110587;28;20286;-83
2022/04/22 06:50:48;;;;;;;0.80;0.68;;;8.70;90.70;;;;;;5110415;28;20201;-83
2022/04/22 06:53:18;;;;;;;0.50;0.50;;;8.60;96.00;;;;;;5110982;27;20273;-84
2022/04/22 06:55:46;;;;;;;0.50;0.45;;;8.90;96.50;;;;;;5109621;28;20611;-84
2022/04/22 06:58:16;;;;;;;0.60;0.47;;;9.20;96.40;;;;;;5110990;28;20243;-83
2022/04/22 07:00:44;;;;;;;0.65;0.63;;;8.90;99.70;;;;;;5113579;28;20205;-83
2022/04/22 07:03:12;;;;;;;0.30;0.20;;;9.30;95.10;;;;;;5113117;28;20284;-84
2022/04/22 07:05:40;;;;;;;0.57;0.57;;;9.30;89.60;;;;;;5111626;28;20284;-84
2022/04/22 07:08:13;;;;;;;0.85;0.85;;;9.40;94.90;;;;;;5110309;28;20201;-84
2022/04/22 07:10:42;;;;;;;0.30;0.20;;;9.40;88.80;;;;;;5110056;28;20201;-82
2022/04/22 07:13:11;;;;;;;0.80;0.70;;;9.60;88.60;;;;;;5109750;28;20256;-84
2022/04/22 07:15:38;;;;;;;0.57;0.50;;;10.50;97.90;;;;;;5109737;27;20232;-84
2022/04/22 07:18:06;;;;;;;0.40;0.38;;;9.80;87.80;;;;;;5108947;28;20197;-83
2022/04/22 07:20:34;;;;;;;1.25;0.80;;;10.20;87.20;;;;;;5109210;28;20696;-83
2022/04/22 07:23:01;;;;;;;0.43;0.43;;;10.00;96.60;;;;;;5109689;28;20249;-83
2022/04/22 07:25:28;;;;;;;1.80;0.75;;;9.80;85.40;;;;;;5109393;28;20737;-85
2022/04/22 07:27:58;;;;;;;0.30;0.30;;;9.70;86.70;;;;;;5110319;28;20197;-83
2022/04/22 07:30:26;;;;;;;0.40;0.25;;;9.90;85.90;;;;;;5109439;28;20800;-83
2022/04/22 07:32:53;;;;;;;1.63;0.63;;;10.20;96.30;;;;;;5110307;28;20206;-83
2022/04/22 07:35:21;;;;;;;0.40;0.35;;;10.00;95.60;;;;;;5108854;28;20194;-83
2022/04/22 07:37:50;;;;;;;1.20;1.20;;;9.90;84.90;;;;;;5109948;28;20247;-84
2022/04/22 07:40:19;;;;;;;0.65;0.65;;;10.20;84.50;;;;;;5108947;28;20225;-84
2022/04/22 07:48:31;;;;;;;1.52;1.42;;;10.70;82.50;;;;;;5046047;28;20216;-83
2022/04/22 07:50:57;;;;;;;0.53;0.53;;;10.50;82.30;;;;;;5045312;28;20200;-82
2022/04/22 07:53:24;;;;;;;0.30;0.30;;;11.10;91.30;;;;;;5073815;28;20636;-83
2022/04/22 07:55:51;;;;;;;0.77;0.77;;;10.50;82.00;;;;;;5109035;28;20672;-83
2022/04/22 07:58:19;;;;;;;1.47;1.17;;;11.10;93.90;;;;;;5108521;28;20624;-85
2022/04/22 08:00:47;;;;;;;0.30;0.23;;;11.10;94.20;;;;;;5108988;28;20639;-83
2022/04/22 08:03:15;;;;;;;0.50;0.50;;;11.10;81.30;;;;;;5108000;28;20666;-84
2022/04/22 08:05:42;;;;;;;0.30;0.27;;;10.70;81.00;;;;;;5108687;28;20993;-82
2022/04/22 08:08:09;;;;;;;0.30;0.17;;;10.90;81.40;;;;;;5109439;28;20667;-83
2022/04/22 08:10:37;;;;;;;0.30;0.20;;;10.30;90.10;;;;;;5108584;28;20694;-83
2022/04/22 08:13:05;;;;;;;1.17;0.60;;;10.50;85.20;;;;;;5108991;28;20635;-83
2022/04/22 08:15:33;;;;;;;0.52;0.50;;;11.10;94.60;;;;;;5108976;28;20620;-83
2022/04/22 08:18:01;;;;;;;2.50;2.07;;;10.50;80.30;;;;;;5109430;28;20208;-83
2022/04/22 08:20:30;;;;;;;0.70;0.70;;;10.60;82.50;;;;;;5108329;28;20681;-83
2022/04/22 08:22:56;;;;;;;0.40;0.30;;;10.70;90.80;;;;;;5108932;28;20640;-83
2022/04/22 08:25:24;;;;;;;0.83;0.83;;;10.60;94.40;;;;;;5107873;28;21264;-83
2022/04/22 08:27:52;;;;;;;2.30;1.00;;;10.70;80.80;;;;;;5107686;28;20628;-83
2022/04/22 08:30:19;;;;;;;0.30;0.30;;;10.80;81.00;;;;;;5108428;28;20705;-83
2022/04/22 08:32:46;;;;;;;0.93;0.93;;;11.00;80.60;;;;;;5108952;28;20622;-83
2022/04/22 08:35:14;;;;;;;0.80;0.43;;;10.90;80.20;;;;;;5108716;28;20615;-83
2022/04/22 08:37:45;;;;;;;1.73;0.63;;;10.80;80.00;;;;;;5108454;28;20616;-84
2022/04/22 08:40:12;;;;;;;0.40;0.40;;;11.00;81.60;;;;;;5108865;28;20684;-84
2022/04/22 08:42:40;;;;;;;0.37;0.37;;;11.30;81.00;;;;;;5108870;28;21190;-84
2022/04/22 08:45:08;;;;;;;1.53;1.03;;;11.10;79.80;;;;;;5108728;28;20661;-83
2022/04/22 08:50:23;;;;;;;1.07;1.07;;;11.30;94.10;;;;;;5107657;28;20622;-84
2022/04/22 08:52:56;;;;;;;0.87;0.87;;;12.00;93.60;;;;;;5109219;28;20619;-83
2022/04/22 08:55:25;;;;;;;0.57;0.57;;;12.40;93.30;;;;;;5108930;28;20647;-84
2022/04/22 08:57:54;;;;;;;0.60;0.60;;;12.20;92.60;;;;;;5110029;28;20612;-83
2022/04/22 09:00:22;;;;;;;0.40;0.30;;;12.00;75.80;;;;;;5108909;28;20624;-83
2022/04/22 09:02:49;;;;;;;0.67;0.37;;;12.30;91.90;;;;;;5108775;28;20636;-83
2022/04/22 09:05:16;;;;;;;0.80;0.80;;;12.50;76.10;;;;;;5109297;28;20624;-85
2022/04/22 09:07:45;;;;;;;0.77;0.77;;;12.60;76.80;;;;;;5109272;28;20620;-84
2022/04/22 09:10:13;;;;;;;0.63;0.63;;;;;;;;;;5109078;28;20658;-82
2022/04/22 09:12:44;;;;;;;1.13;0.97;;;11.10;91.00;;;;;;5109102;28;20606;-84
2022/04/22 09:15:11;;;;;;;0.60;0.60;;;12.50;90.00;;;;;;5108286;28;20616;-84
2022/04/22 09:17:40;;;;;;;1.37;0.70;;;12.50;90.90;;;;;;5108010;28;20612;-83
2022/04/22 09:20:13;;;;;;;0.97;0.97;;;12.70;91.90;;;;;;5107876;28;20668;-83
2022/04/22 09:22:40;;;;;;;0.60;0.57;;;12.90;75.00;;;;;;5108655;28;20647;-84
2022/04/22 09:25:08;;;;;;;1.80;0.97;;;13.30;72.90;;;;;;5108528;28;20691;-84
2022/04/22 09:27:38;;;;;;;1.33;1.23;;;13.50;70.90;;;;;;5109131;28;20715;-83
2022/04/22 09:30:07;;;;;;;0.50;0.40;;;12.50;89.40;;;;;;5109097;28;20716;-82
2022/04/22 09:32:37;;;;;;;1.43;1.33;;;13.10;71.80;;;;;;5109752;28;20746;-83
2022/04/22 09:35:12;;;;;;;0.57;0.50;;;13.10;72.60;;;;;;5109884;28;20624;-84
2022/04/22 09:43:33;;;;;;;0.50;0.40;;;14.30;68.90;;;;;;5112152;28;20692;-82
2022/04/22 09:46:00;;;;;;;0.90;0.90;;;;;;;;;;5112244;27;20620;-83
2022/04/22 09:48:27;;;;;;;1.97;1.70;;;14.10;68.50;;;;;;5113782;28;20642;-82
2022/04/22 09:50:57;;;;;;;2.13;0.77;;;14.00;69.40;;;;;;5112873;28;20618;-83
2022/04/22 09:53:34;;;;;;;1.20;1.20;;;13.90;67.40;;;;;;5115155;28;20620;-82
2022/04/22 09:56:08;;;;;;;0.73;0.73;;;13.90;67.90;;;;;;5113520;28;20693;-83
2022/04/22 09:58:36;;;;;;;1.17;0.90;;;;;;;;;;5112948;28;20608;-83
2022/04/22 10:01:04;;;;;;;0.93;0.93;;;14.20;86.20;;;;;;5113585;28;20629;-83
2022/04/22 10:03:33;;;;;;;1.60;1.23;;;14.00;68.40;;;;;;5113860;28;21239;-83
2022/04/22 10:06:01;;;;;;;2.20;2.10;;;;;;;;;;5113464;28;20643;-83
2022/04/22 10:08:34;;;;;;;2.50;1.67;;;14.30;79.40;;;;;;5111673;28;20652;-84
2022/04/22 10:11:03;;;;;;;1.50;1.23;;;14.50;68.30;;;;;;5112048;28;21002;-83
2022/04/22 10:13:46;;;;;;;2.67;1.90;;;14.70;76.40;;;;;;5112250;28;20727;-84
2022/04/22 10:16:14;;;;;;;2.13;1.93;;;14.80;68.40;;;;;;5111573;28;21191;-84
2022/04/22 10:18:44;;;;;;;1.27;0.83;;;14.50;65.40;;;;;;5111035;28;21022;-84
2022/04/22 10:21:12;;;;;;;1.87;1.57;;;14.50;67.80;;;;;;5111028;28;21022;-83
2022/04/22 10:23:39;;;;;;;0.80;0.80;;;14.50;86.30;;;;;;5111341;28;20748;-85
2022/04/22 10:26:06;;;;;;;1.30;1.00;;;14.80;84.00;;;;;;5110292;28;20625;-83
2022/04/22 10:28:36;;;;;;;1.50;0.70;;;15.20;64.60;;;;;;5112620;28;20611;-83
2022/04/22 10:31:03;;;;;;;1.53;1.33;;;15.10;65.20;;;;;;5111374;28;20984;-83
2022/04/22 10:33:40;;;;;;;1.50;0.70;;;14.90;65.50;;;;;;5112056;28;20618;-84
2022/04/22 10:36:08;;;;;;;0.87;0.87;;;15.00;66.60;;;;;;5111463;28;20626;-83
2022/04/22 10:38:38;;;;;;;4.20;2.37;;;15.60;64.10;;;;;;5110981;28;20638;-83
2022/04/22 10:41:14;;;;;;;1.03;0.83;;;15.40;64.10;;;;;;5110592;28;20623;-84
2022/04/22 10:43:42;;;;;;;1.07;0.83;;;15.50;65.10;;;;;;5110873;28;20668;-84
2022/04/22 10:49:14;;;;;;;1.67;1.43;;;16.00;62.90;;;;;;5111195;28;21240;-84
2022/04/22 10:52:02;;;;;;;1.17;1.07;;;16.10;63.50;;;;;;5110733;27;20677;-84
2022/04/22 10:55:06;;;;;;;1.40;1.30;;;16.30;62.90;;;;;;5111582;28;20628;-83
2022/04/22 10:57:39;;;;;;;1.37;1.37;;;16.40;62.40;;;;;;5111404;28;21086;-82
2022/04/22 11:00:30;;;;;;;1.67;1.50;;;16.30;77.30;;;;;;5111888;28;20623;-83
2022/04/22 11:03:13;;;;;;;1.40;1.23;;;16.60;61.90;;;;;;5114453;28;20710;-83
2022/04/22 11:05:46;;;;;;;0.73;0.73;;;17.00;67.70;;;;;;5111460;28;20614;-84
2022/04/22 11:08:24;;;;;;;1.47;1.30;;;16.90;61.60;;;;;;5111061;28;20662;-83
2022/04/22 11:11:10;;;;;;;2.10;1.83;;;17.20;59.10;;;;;;5109880;28;21009;-82
2022/04/22 11:13:43;;;;;;;3.07;1.20;;;17.30;59.30;;;;;;5110799;28;20635;-83
2022/04/22 11:16:26;;;;;;;1.47;0.90;;;17.60;64.50;;;;;;5090320;28;20619;-82
2022/04/22 11:19:11;;;;;;;0.90;0.63;;;17.50;58.50;;;;;;5090990;28;21171;-83
2022/04/22 11:21:42;;;;;;;2.00;1.70;;;17.60;74.20;;;;;;5085626;28;20653;-83
2022/04/22 11:24:14;;;;;;;1.40;1.23;;;;;;;;;;5090181;28;20674;-83
2022/04/22 11:26:45;;;;;;;1.77;1.37;;;17.80;75.00;;;;;;5089569;28;20613;-83
2022/04/22 11:29:16;;;;;;;1.90;1.80;;;17.90;58.30;;;;;;5090349;28;20620;-83
2022/04/22 11:31:57;;;;;;;3.90;1.20;;;17.70;57.40;;;;;;5089259;28;20622;-83
2022/04/22 11:34:55;;;;;;;1.43;1.30;;;17.40;77.30;;;;;;5089624;28;20723;-83
2022/04/22 11:37:23;;;;;;;0.83;0.83;;;17.40;58.40;;;;;;5086829;28;20660;-82
2022/04/22 11:39:50;;;;;;;2.50;1.40;;;17.90;57.50;;;;;;5089223;28;20631;-83
2022/04/22 11:42:20;;;;;;;1.47;0.97;;;17.70;56.90;;;;;;5090298;28;20619;-82
2022/04/22 11:45:02;;;;;;;1.57;1.40;;;18.30;63.70;;;;;;5102247;28;20656;-83
2022/04/22 11:47:31;;;;;;;1.77;1.67;;;18.10;56.80;;;;;;5090217;28;20632;-83
2022/04/22 11:49:58;;;;;;;1.93;1.40;;;18.80;71.30;;;;;;5089612;28;20723;-83
2022/04/22 11:52:29;;;;;;;2.23;2.03;;;19.70;55.80;;;;;;5090755;28;20664;-83
2022/04/22 11:55:01;;;;;;;1.10;0.60;;;19.70;56.40;;;;;;5090924;28;20633;-85
2022/04/22 11:57:29;;;;;;;1.77;1.57;;;;;;;;;;5089571;28;20620;-83
2022/04/22 12:05:41;;;;;;;2.90;1.40;;;21.80;51.00;;;;;;5084639;28;20660;-85
2022/04/22 12:08:11;;;;;;;2.17;1.30;;;22.50;51.30;;;;;;5092065;28;20644;-83
2022/04/22 12:10:38;;;;;;;1.40;1.30;;;23.40;49.80;;;;;;5088835;28;20656;-83
2022/04/22 12:13:09;;;;;;;1.40;1.30;;;24.10;49.00;;;;;;5090405;28;20628;-83
2022/04/22 12:15:42;;;;;;;2.13;1.57;;;24.90;46.90;;;;;;5089317;28;20636;-84
2022/04/22 12:18:28;;;;;;;2.80;2.00;;;24.90;47.50;;;;;;5089570;28;21002;-83
2022/04/22 12:20:56;;;;;;;1.53;1.43;;;;;;;;;;5089067;28;20624;-84
2022/04/22 12:23:23;;;;;;;1.67;1.57;;;24.60;45.90;;;;;;5089452;28;20613;-84
2022/04/22 12:25:56;;;;;;;2.60;2.40;;;25.00;46.00;;;;;;5089289;28;20652;-84
2022/04/22 12:28:26;;;;;;;1.40;1.30;;;25.10;44.40;;;;;;5089746;28;20624;-84
2022/04/22 12:30:53;;;;;;;3.50;1.90;;;;;;;;;;5090102;28;20627;-84
2022/04/22 12:33:24;;;;;;;3.70;2.17;;;24.90;54.20;;;;;;5088122;28;20663;-83
2022/04/22 12:36:03;;;;;;;1.57;1.40;;;25.10;45.90;;;;;;5089120;28;20698;-86
2022/04/22 12:38:31;;;;;;;1.87;1.77;;;24.30;45.00;;;;;;5090660;28;20642;-83
2022/04/22 12:40:58;;;;;;;1.90;1.73;;;;;;;;;;5089699;28;20649;-84
2022/04/22 12:43:28;;;;;;;1.50;1.40;;;25.80;42.20;;;;;;5088839;28;21243;-84
2022/04/22 12:52:09;;;;;;;1.77;1.47;;;24.90;46.00;;;;;;5087998;28;20624;-84
2022/04/22 12:54:36;;;;;;;2.80;1.80;;;;;;;;;;5090306;28;20664;-84
2022/04/22 12:57:05;;;;;;;2.57;1.97;;;;;;;;;;5089532;28;20974;-84
2022/04/22 12:59:42;;;;;;;1.63;1.47;;;25.20;45.00;;;;;;5089099;28;20628;-83
2022/04/22 13:02:10;;;;;;;2.40;1.60;;;;;;;;;;5089080;28;20859;-84
2022/04/22 13:04:58;;;;;;;1.60;1.50;;;26.70;43.20;;;;;;5089087;28;21163;-83
2022/04/22 13:07:26;;;;;;;1.63;1.50;;;27.40;42.80;;;;;;5088574;28;20617;-84
2022/04/22 13:09:53;;;;;;;5.90;1.97;;;28.00;41.50;;;;;;5089376;28;20719;-83
2022/04/22 13:12:21;;;;;;;1.20;1.10;;;;;;;;;;5093036;28;20712;-84
2022/04/22 13:14:48;;;;;;;1.60;1.33;;;27.00;48.00;;;;;;5092711;28;20682;-84
2022/04/22 13:17:22;;;;;;;1.90;1.53;;;26.70;41.60;;;;;;5092685;28;20623;-84
2022/04/22 13:19:51;;;;;;;3.53;2.20;;;27.00;42.50;;;;;;5092653;28;20665;-84
2022/04/22 13:22:18;;;;;;;1.67;1.57;;;27.70;40.10;;;;;;5091702;28;20637;-84
2022/04/22 13:24:45;;;;;;;1.43;1.23;;;;;;;;;;5092169;28;20697;-84
2022/04/22 13:27:13;;;;;;;1.40;1.30;;;27.20;40.50;;;;;;5091266;28;20652;-84
2022/04/22 13:29:41;;;;;;;1.30;1.20;;;;;;;;;;5092472;28;20624;-84
2022/04/22 13:32:08;;;;;;;1.70;1.60;;;;;;;;;;5092318;28;20624;-84
2022/04/22 13:34:36;;;;;;;2.13;1.90;;;;;;;;;;5091926;28;20660;-84
2022/04/22 13:37:04;;;;;;;1.50;1.23;;;28.20;39.30;;;;;;5090375;28;20727;-84
2022/04/22 13:39:31;;;;;;;1.27;1.03;;;28.20;39.80;;;;;;5091936;28;20998;-83
2022/04/22 13:41:58;;;;;;;1.43;1.10;;;27.40;39.60;;;;;;5090114;28;20723;-84
2022/04/22 13:52:40;;;;;;;2.37;1.23;;;26.60;41.30;;;;;;5091545;28;20600;-85
2022/04/22 13:55:07;;;;;;;3.67;1.90;;;26.70;39.50;;;;;;5091319;28;20722;-85
2022/04/22 13:57:34;;;;;;;1.97;1.60;;;;;;;;;;5091629;28;21272;-84
2022/04/22 14:00:02;;;;;;;2.17;1.40;;;26.30;40.80;;;;;;5090934;28;21095;-85
2022/04/22 14:02:29;;;;;;;2.80;1.97;;;27.60;39.20;;;;;;5090450;28;20608;-85
2022/04/22 14:04:55;;;;;;;1.00;1.00;;;26.50;41.40;;;;;;5090129;28;20624;-85
2022/04/22 14:07:22;;;;;;;1.67;1.20;;;26.70;38.40;;;;;;5090436;28;20616;-84
2022/04/22 14:09:51;;;;;;;1.67;1.10;;;25.80;39.90;;;;;;5091202;28;20748;-84
2022/04/22 14:12:18;;;;;;;1.97;1.87;;;25.80;45.00;;;;;;5090295;28;20660;-84
2022/04/22 14:14:45;;;;;;;3.50;1.67;;;;;;;;;;5091553;28;20636;-84
2022/04/22 14:17:14;;;;;;;2.23;2.13;;;25.50;41.40;;;;;;5091190;28;20604;-83
2022/04/22 14:19:41;;;;;;;0.97;0.93;;;26.00;50.60;;;;;;5091082;28;20617;-84
2022/04/22 14:22:08;;;;;;;1.17;1.07;;;;;;;;;;5090424;28;20749;-83
2022/04/22 14:24:35;;;;;;;1.73;1.27;;;;;;;;;;5091002;28;20620;-85
2022/04/22 14:27:06;;;;;;;1.60;1.50;;;25.40;39.60;;;;;;5090282;28;21028;-84